<?xml version="1.0" encoding="UTF-8" standalone="no" ?>
<gpx xmlns="http://www.topografix.com/GPX/1/1" xmlns:xsi="http://www.w3.org/2001/XMLSchema-instance" xsi:schemaLocation="http://www.topografix.com/GPX/1/1 http://www.topografix.com/GPX/1/1/gpx.xsd" version="1.1" creator="VisuGPX - https://www.visugpx.com">
  <metadata>
    <name>Saumont Randonnée pédestre</name>
  </metadata>
  <trk>
    <name><![CDATA[Saumont Randonnée pédestre]]></name>
    <extensions>
      <line xmlns="http://www.topografix.com/GPX/gpx_style/0/2">
        <color>0000FF</color>
        <width>4</width>
      </line>
    </extensions>
    <trkseg>
      <trkpt lat="44.12284" lon="0.4586">
        <ele>135.1</ele>
      </trkpt>
      <trkpt lat="44.12294" lon="0.45897">
        <ele>135.4</ele>
      </trkpt>
      <trkpt lat="44.12312" lon="0.45898">
        <ele>134.2</ele>
      </trkpt>
      <trkpt lat="44.12344" lon="0.45811">
        <ele>131.5</ele>
        <time>2019-07-11T06:59:30.000Z</time>
      </trkpt>
      <trkpt lat="44.12486" lon="0.45729">
        <ele>126.3</ele>
      </trkpt>
      <trkpt lat="44.12636" lon="0.45726">
        <ele>127.4</ele>
      </trkpt>
      <trkpt lat="44.12737" lon="0.45628">
        <ele>129.5</ele>
      </trkpt>
      <trkpt lat="44.12849" lon="0.45602">
        <ele>131</ele>
      </trkpt>
      <trkpt lat="44.13103" lon="0.45313">
        <ele>130.8</ele>
      </trkpt>
      <trkpt lat="44.13216" lon="0.45168">
        <ele>127.9</ele>
      </trkpt>
      <trkpt lat="44.13316" lon="0.44973">
        <ele>129</ele>
        <time>2019-07-11T07:44:22.000Z</time>
      </trkpt>
      <trkpt lat="44.13333" lon="0.4501">
        <ele>128.9</ele>
        <time>2019-07-11T07:44:38.000Z</time>
      </trkpt>
      <trkpt lat="44.13347" lon="0.45036">
        <ele>128.2</ele>
        <time>2019-07-11T07:45:02.000Z</time>
      </trkpt>
      <trkpt lat="44.13348" lon="0.4503">
        <ele>128.3</ele>
        <time>2019-07-11T07:45:42.000Z</time>
      </trkpt>
      <trkpt lat="44.13356" lon="0.45041">
        <ele>127.9</ele>
        <time>2019-07-11T07:46:06.000Z</time>
      </trkpt>
      <trkpt lat="44.1337" lon="0.45073">
        <ele>126.2</ele>
        <time>2019-07-11T07:46:46.000Z</time>
      </trkpt>
      <trkpt lat="44.13379" lon="0.45093">
        <ele>124.7</ele>
        <time>2019-07-11T07:47:02.000Z</time>
      </trkpt>
      <trkpt lat="44.13389" lon="0.4511">
        <ele>123</ele>
        <time>2019-07-11T07:47:16.000Z</time>
      </trkpt>
      <trkpt lat="44.13407" lon="0.45132">
        <ele>120.2</ele>
        <time>2019-07-11T07:47:35.000Z</time>
      </trkpt>
      <trkpt lat="44.13411" lon="0.45135">
        <ele>119.7</ele>
        <time>2019-07-11T07:47:38.000Z</time>
      </trkpt>
      <trkpt lat="44.13418" lon="0.45141">
        <ele>118.7</ele>
        <time>2019-07-11T07:47:47.000Z</time>
      </trkpt>
      <trkpt lat="44.13421" lon="0.45142">
        <ele>118.5</ele>
        <time>2019-07-11T07:47:49.000Z</time>
      </trkpt>
      <trkpt lat="44.13424" lon="0.45143">
        <ele>118.3</ele>
        <time>2019-07-11T07:47:51.000Z</time>
      </trkpt>
      <trkpt lat="44.13431" lon="0.45145">
        <ele>117.6</ele>
        <time>2019-07-11T07:47:58.000Z</time>
      </trkpt>
      <trkpt lat="44.13467" lon="0.45148">
        <ele>115</ele>
        <time>2019-07-11T07:48:29.000Z</time>
      </trkpt>
      <trkpt lat="44.13477" lon="0.45149">
        <ele>114.2</ele>
        <time>2019-07-11T07:48:38.000Z</time>
      </trkpt>
      <trkpt lat="44.13479" lon="0.4515">
        <ele>114</ele>
        <time>2019-07-11T07:48:40.000Z</time>
      </trkpt>
      <trkpt lat="44.13482" lon="0.45151">
        <ele>113.8</ele>
        <time>2019-07-11T07:48:42.000Z</time>
      </trkpt>
      <trkpt lat="44.135" lon="0.45156">
        <ele>112.1</ele>
        <time>2019-07-11T07:49:10.000Z</time>
      </trkpt>
      <trkpt lat="44.13516" lon="0.45147">
        <ele>112.5</ele>
        <time>2019-07-11T07:49:24.000Z</time>
      </trkpt>
      <trkpt lat="44.13535" lon="0.45138">
        <ele>112.7</ele>
        <time>2019-07-11T07:49:39.000Z</time>
      </trkpt>
      <trkpt lat="44.1356" lon="0.45131">
        <ele>112.5</ele>
        <time>2019-07-11T07:50:00.000Z</time>
      </trkpt>
      <trkpt lat="44.13583" lon="0.45133">
        <ele>111.6</ele>
        <time>2019-07-11T07:50:17.000Z</time>
      </trkpt>
      <trkpt lat="44.13627" lon="0.45166">
        <ele>106.4</ele>
        <time>2019-07-11T07:50:57.000Z</time>
      </trkpt>
      <trkpt lat="44.1363" lon="0.45168">
        <ele>106.1</ele>
        <time>2019-07-11T07:50:59.000Z</time>
      </trkpt>
      <trkpt lat="44.13685" lon="0.45206">
        <ele>101.3</ele>
        <time>2019-07-11T07:51:48.000Z</time>
      </trkpt>
      <trkpt lat="44.13702" lon="0.45218">
        <ele>100.1</ele>
        <time>2019-07-11T07:52:03.000Z</time>
      </trkpt>
      <trkpt lat="44.13705" lon="0.45219">
        <ele>99.9</ele>
        <time>2019-07-11T07:52:05.000Z</time>
      </trkpt>
      <trkpt lat="44.13711" lon="0.45224">
        <ele>99.5</ele>
        <time>2019-07-11T07:52:10.000Z</time>
      </trkpt>
      <trkpt lat="44.13713" lon="0.45226">
        <ele>99.4</ele>
        <time>2019-07-11T07:52:12.000Z</time>
      </trkpt>
      <trkpt lat="44.13737" lon="0.45241">
        <ele>97.8</ele>
        <time>2019-07-11T07:52:34.000Z</time>
      </trkpt>
      <trkpt lat="44.13739" lon="0.45242">
        <ele>97.7</ele>
        <time>2019-07-11T07:52:36.000Z</time>
      </trkpt>
      <trkpt lat="44.13741" lon="0.45244">
        <ele>97.6</ele>
        <time>2019-07-11T07:52:38.000Z</time>
      </trkpt>
      <trkpt lat="44.13744" lon="0.45246">
        <ele>97.4</ele>
        <time>2019-07-11T07:52:41.000Z</time>
      </trkpt>
      <trkpt lat="44.13752" lon="0.4525">
        <ele>96.8</ele>
        <time>2019-07-11T07:52:48.000Z</time>
      </trkpt>
      <trkpt lat="44.13767" lon="0.45259">
        <ele>95.5</ele>
        <time>2019-07-11T07:53:13.000Z</time>
      </trkpt>
      <trkpt lat="44.13779" lon="0.45272">
        <ele>94.5</ele>
        <time>2019-07-11T07:54:07.000Z</time>
      </trkpt>
      <trkpt lat="44.13778" lon="0.45276">
        <ele>94.5</ele>
        <time>2019-07-11T07:55:31.000Z</time>
      </trkpt>
      <trkpt lat="44.13787" lon="0.45276">
        <ele>93.9</ele>
        <time>2019-07-11T07:55:41.000Z</time>
      </trkpt>
      <trkpt lat="44.13788" lon="0.45279">
        <ele>93.8</ele>
        <time>2019-07-11T07:55:43.000Z</time>
      </trkpt>
      <trkpt lat="44.13792" lon="0.45282">
        <ele>93.5</ele>
        <time>2019-07-11T07:55:46.000Z</time>
      </trkpt>
      <trkpt lat="44.13839" lon="0.45322">
        <ele>90.5</ele>
        <time>2019-07-11T07:56:10.000Z</time>
      </trkpt>
      <trkpt lat="44.1387" lon="0.45346">
        <ele>87.6</ele>
        <time>2019-07-11T07:56:29.000Z</time>
      </trkpt>
      <trkpt lat="44.13884" lon="0.45361">
        <ele>85.9</ele>
        <time>2019-07-11T07:56:44.000Z</time>
      </trkpt>
      <trkpt lat="44.13909" lon="0.45381">
        <ele>83.5</ele>
        <time>2019-07-11T07:57:04.000Z</time>
      </trkpt>
      <trkpt lat="44.1393" lon="0.45403">
        <ele>81.2</ele>
        <time>2019-07-11T07:57:25.000Z</time>
      </trkpt>
      <trkpt lat="44.13936" lon="0.45408">
        <ele>80.6</ele>
        <time>2019-07-11T07:57:30.000Z</time>
      </trkpt>
      <trkpt lat="44.13957" lon="0.45419">
        <ele>78.6</ele>
        <time>2019-07-11T07:57:45.000Z</time>
      </trkpt>
      <trkpt lat="44.13967" lon="0.45409">
        <ele>78</ele>
        <time>2019-07-11T07:57:54.000Z</time>
      </trkpt>
      <trkpt lat="44.14003" lon="0.45381">
        <ele>76</ele>
        <time>2019-07-11T07:58:24.000Z</time>
      </trkpt>
      <trkpt lat="44.14021" lon="0.45372">
        <ele>74.5</ele>
        <time>2019-07-11T07:58:40.000Z</time>
      </trkpt>
      <trkpt lat="44.14063" lon="0.45394">
        <ele>69.6</ele>
        <time>2019-07-11T07:59:14.000Z</time>
      </trkpt>
      <trkpt lat="44.1407" lon="0.45401">
        <ele>68.7</ele>
        <time>2019-07-11T07:59:21.000Z</time>
      </trkpt>
      <trkpt lat="44.14073" lon="0.45403">
        <ele>68.4</ele>
        <time>2019-07-11T07:59:24.000Z</time>
      </trkpt>
      <trkpt lat="44.14073" lon="0.4541">
        <ele>68.1</ele>
        <time>2019-07-11T08:01:04.000Z</time>
      </trkpt>
      <trkpt lat="44.14078" lon="0.45411">
        <ele>67.6</ele>
        <time>2019-07-11T08:02:35.000Z</time>
      </trkpt>
      <trkpt lat="44.14108" lon="0.45473">
        <ele>64.2</ele>
        <time>2019-07-11T08:03:31.000Z</time>
      </trkpt>
      <trkpt lat="44.14119" lon="0.45502">
        <ele>63.1</ele>
        <time>2019-07-11T08:03:52.000Z</time>
      </trkpt>
      <trkpt lat="44.14131" lon="0.4553">
        <ele>62.3</ele>
        <time>2019-07-11T08:04:14.000Z</time>
      </trkpt>
      <trkpt lat="44.14134" lon="0.45534">
        <ele>62.2</ele>
        <time>2019-07-11T08:04:17.000Z</time>
      </trkpt>
      <trkpt lat="44.14135" lon="0.45537">
        <ele>62.1</ele>
        <time>2019-07-11T08:04:19.000Z</time>
      </trkpt>
      <trkpt lat="44.1414" lon="0.45552">
        <ele>61.8</ele>
        <time>2019-07-11T08:04:29.000Z</time>
      </trkpt>
      <trkpt lat="44.14147" lon="0.45573">
        <ele>61.4</ele>
        <time>2019-07-11T08:04:42.000Z</time>
      </trkpt>
      <trkpt lat="44.14157" lon="0.45595">
        <ele>61</ele>
        <time>2019-07-11T08:05:00.000Z</time>
      </trkpt>
      <trkpt lat="44.14175" lon="0.45621">
        <ele>60.6</ele>
        <time>2019-07-11T08:05:31.000Z</time>
      </trkpt>
      <trkpt lat="44.14178" lon="0.45624">
        <ele>60.7</ele>
        <time>2019-07-11T08:05:33.000Z</time>
      </trkpt>
      <trkpt lat="44.14196" lon="0.45641">
        <ele>60.8</ele>
        <time>2019-07-11T08:05:57.000Z</time>
      </trkpt>
      <trkpt lat="44.14212" lon="0.45671">
        <ele>61.1</ele>
        <time>2019-07-11T08:06:25.000Z</time>
      </trkpt>
      <trkpt lat="44.14204" lon="0.45687">
        <ele>61.1</ele>
        <time>2019-07-11T08:06:37.000Z</time>
      </trkpt>
      <trkpt lat="44.14196" lon="0.45754">
        <ele>61.7</ele>
        <time>2019-07-11T08:07:30.000Z</time>
      </trkpt>
      <trkpt lat="44.14208" lon="0.45803">
        <ele>62</ele>
        <time>2019-07-11T08:08:21.000Z</time>
      </trkpt>
      <trkpt lat="44.14242" lon="0.45806">
        <ele>62.8</ele>
        <time>2019-07-11T08:09:02.000Z</time>
      </trkpt>
      <trkpt lat="44.14278" lon="0.45803">
        <ele>65.2</ele>
        <time>2019-07-11T08:09:37.000Z</time>
      </trkpt>
      <trkpt lat="44.14296" lon="0.45797">
        <ele>66.7</ele>
        <time>2019-07-11T08:09:54.000Z</time>
      </trkpt>
      <trkpt lat="44.14353" lon="0.45786">
        <ele>72</ele>
        <time>2019-07-11T08:10:46.000Z</time>
      </trkpt>
      <trkpt lat="44.14365" lon="0.45757">
        <ele>74.9</ele>
        <time>2019-07-11T08:11:21.000Z</time>
      </trkpt>
      <trkpt lat="44.14386" lon="0.45756">
        <ele>77.2</ele>
        <time>2019-07-11T08:11:53.000Z</time>
      </trkpt>
      <trkpt lat="44.14412" lon="0.45794">
        <ele>76.4</ele>
        <time>2019-07-11T08:12:32.000Z</time>
      </trkpt>
      <trkpt lat="44.1445" lon="0.45835">
        <ele>78.1</ele>
        <time>2019-07-11T08:13:17.000Z</time>
      </trkpt>
      <trkpt lat="44.14482" lon="0.45903">
        <ele>76.8</ele>
        <time>2019-07-11T08:14:14.000Z</time>
      </trkpt>
      <trkpt lat="44.14517" lon="0.45965">
        <ele>81.3</ele>
        <time>2019-07-11T08:15:08.000Z</time>
      </trkpt>
      <trkpt lat="44.14566" lon="0.46028">
        <ele>87.2</ele>
        <time>2019-07-11T08:16:02.000Z</time>
      </trkpt>
      <trkpt lat="44.1457" lon="0.46044">
        <ele>86.9</ele>
        <time>2019-07-11T08:16:12.000Z</time>
      </trkpt>
      <trkpt lat="44.14572" lon="0.46052">
        <ele>86.8</ele>
        <time>2019-07-11T08:16:17.000Z</time>
      </trkpt>
      <trkpt lat="44.14594" lon="0.46105">
        <ele>88.6</ele>
        <time>2019-07-11T08:17:01.000Z</time>
      </trkpt>
      <trkpt lat="44.14613" lon="0.46116">
        <ele>91.3</ele>
        <time>2019-07-11T08:17:21.000Z</time>
      </trkpt>
      <trkpt lat="44.14659" lon="0.46116">
        <ele>96.4</ele>
        <time>2019-07-11T08:18:06.000Z</time>
      </trkpt>
      <trkpt lat="44.14675" lon="0.46115">
        <ele>98</ele>
        <time>2019-07-11T08:18:21.000Z</time>
      </trkpt>
      <trkpt lat="44.14711" lon="0.46106">
        <ele>101.7</ele>
        <time>2019-07-11T08:19:00.000Z</time>
      </trkpt>
      <trkpt lat="44.14768" lon="0.46106">
        <ele>107.1</ele>
        <time>2019-07-11T08:19:57.000Z</time>
      </trkpt>
      <trkpt lat="44.14798" lon="0.4611">
        <ele>109.5</ele>
        <time>2019-07-11T08:20:27.000Z</time>
      </trkpt>
      <trkpt lat="44.1485" lon="0.4612">
        <ele>113.4</ele>
        <time>2019-07-11T08:21:19.000Z</time>
      </trkpt>
      <trkpt lat="44.14873" lon="0.4612">
        <ele>115</ele>
        <time>2019-07-11T08:21:51.000Z</time>
      </trkpt>
      <trkpt lat="44.14873" lon="0.46112">
        <ele>115.3</ele>
        <time>2019-07-11T08:22:31.000Z</time>
      </trkpt>
      <trkpt lat="44.14874" lon="0.4611">
        <ele>115.5</ele>
        <time>2019-07-11T08:24:22.000Z</time>
      </trkpt>
      <trkpt lat="44.14873" lon="0.461">
        <ele>115.8</ele>
        <time>2019-07-11T08:25:09.000Z</time>
      </trkpt>
      <trkpt lat="44.14868" lon="0.46066">
        <ele>116</ele>
        <time>2019-07-11T08:25:35.000Z</time>
      </trkpt>
      <trkpt lat="44.14861" lon="0.46042">
        <ele>115.3</ele>
        <time>2019-07-11T08:25:54.000Z</time>
      </trkpt>
      <trkpt lat="44.1487" lon="0.46037">
        <ele>115.9</ele>
        <time>2019-07-11T08:26:08.000Z</time>
      </trkpt>
      <trkpt lat="44.14916" lon="0.46045">
        <ele>118.9</ele>
        <time>2019-07-11T08:27:02.000Z</time>
      </trkpt>
      <trkpt lat="44.14951" lon="0.46056">
        <ele>122.2</ele>
        <time>2019-07-11T08:27:36.000Z</time>
      </trkpt>
      <trkpt lat="44.14985" lon="0.46067">
        <ele>125.4</ele>
        <time>2019-07-11T08:28:10.000Z</time>
      </trkpt>
      <trkpt lat="44.15036" lon="0.46092">
        <ele>129.4</ele>
        <time>2019-07-11T08:28:57.000Z</time>
      </trkpt>
      <trkpt lat="44.15084" lon="0.46085">
        <ele>133</ele>
        <time>2019-07-11T08:29:22.000Z</time>
      </trkpt>
      <trkpt lat="44.15118" lon="0.46216">
        <ele>134.6</ele>
      </trkpt>
      <trkpt lat="44.15069" lon="0.46453">
        <ele>122.2</ele>
      </trkpt>
      <trkpt lat="44.15095" lon="0.46569">
        <ele>121.6</ele>
      </trkpt>
      <trkpt lat="44.15216" lon="0.46823">
        <ele>124.8</ele>
        <time>2019-07-11T09:09:27.000Z</time>
      </trkpt>
      <trkpt lat="44.1518" lon="0.4689">
        <ele>129.4</ele>
        <time>2019-07-11T09:09:57.000Z</time>
      </trkpt>
      <trkpt lat="44.15167" lon="0.46979">
        <ele>136.5</ele>
        <time>2019-07-11T09:10:23.000Z</time>
      </trkpt>
      <trkpt lat="44.15135" lon="0.47035">
        <ele>137.7</ele>
        <time>2019-07-11T09:17:00.000Z</time>
      </trkpt>
      <trkpt lat="44.1509" lon="0.4705">
        <ele>136.3</ele>
        <time>2019-07-11T09:17:33.000Z</time>
      </trkpt>
      <trkpt lat="44.15052" lon="0.47086">
        <ele>137</ele>
        <time>2019-07-11T09:18:37.000Z</time>
      </trkpt>
      <trkpt lat="44.15053" lon="0.47084">
        <ele>136.9</ele>
        <time>2019-07-11T09:19:08.000Z</time>
      </trkpt>
      <trkpt lat="44.1504" lon="0.47076">
        <ele>136.1</ele>
        <time>2019-07-11T09:19:47.000Z</time>
      </trkpt>
      <trkpt lat="44.1503" lon="0.47073">
        <ele>135.6</ele>
        <time>2019-07-11T09:20:34.000Z</time>
      </trkpt>
      <trkpt lat="44.15012" lon="0.47055">
        <ele>134</ele>
        <time>2019-07-11T09:20:53.000Z</time>
      </trkpt>
      <trkpt lat="44.1499" lon="0.47036">
        <ele>132.9</ele>
        <time>2019-07-11T09:21:19.000Z</time>
      </trkpt>
      <trkpt lat="44.14978" lon="0.47023">
        <ele>132.4</ele>
        <time>2019-07-11T09:21:30.000Z</time>
      </trkpt>
      <trkpt lat="44.14949" lon="0.46994">
        <ele>131.3</ele>
        <time>2019-07-11T09:21:58.000Z</time>
      </trkpt>
      <trkpt lat="44.14914" lon="0.46984">
        <ele>131.7</ele>
        <time>2019-07-11T09:22:26.000Z</time>
      </trkpt>
      <trkpt lat="44.14888" lon="0.46978">
        <ele>132.2</ele>
        <time>2019-07-11T09:22:46.000Z</time>
      </trkpt>
      <trkpt lat="44.14823" lon="0.46951">
        <ele>132</ele>
        <time>2019-07-11T09:23:37.000Z</time>
      </trkpt>
      <trkpt lat="44.14786" lon="0.46936">
        <ele>128.4</ele>
        <time>2019-07-11T09:24:11.000Z</time>
      </trkpt>
      <trkpt lat="44.14777" lon="0.46928">
        <ele>127.2</ele>
        <time>2019-07-11T09:24:38.000Z</time>
      </trkpt>
      <trkpt lat="44.14755" lon="0.46912">
        <ele>124.3</ele>
        <time>2019-07-11T09:25:07.000Z</time>
      </trkpt>
      <trkpt lat="44.14726" lon="0.46904">
        <ele>125</ele>
        <time>2019-07-11T09:25:30.000Z</time>
      </trkpt>
      <trkpt lat="44.14693" lon="0.46907">
        <ele>127.3</ele>
        <time>2019-07-11T09:26:03.000Z</time>
      </trkpt>
      <trkpt lat="44.14664" lon="0.46903">
        <ele>129.1</ele>
        <time>2019-07-11T09:26:30.000Z</time>
      </trkpt>
      <trkpt lat="44.14649" lon="0.46897">
        <ele>129.6</ele>
        <time>2019-07-11T09:27:09.000Z</time>
      </trkpt>
      <trkpt lat="44.14618" lon="0.46891">
        <ele>130.7</ele>
        <time>2019-07-11T09:27:57.000Z</time>
      </trkpt>
      <trkpt lat="44.14586" lon="0.46868">
        <ele>131.9</ele>
        <time>2019-07-11T09:28:26.000Z</time>
      </trkpt>
      <trkpt lat="44.14534" lon="0.46849">
        <ele>131.4</ele>
        <time>2019-07-11T09:29:07.000Z</time>
      </trkpt>
      <trkpt lat="44.14504" lon="0.46843">
        <ele>131</ele>
        <time>2019-07-11T09:29:31.000Z</time>
      </trkpt>
      <trkpt lat="44.14497" lon="0.46837">
        <ele>131.1</ele>
        <time>2019-07-11T09:29:38.000Z</time>
      </trkpt>
      <trkpt lat="44.14494" lon="0.46834">
        <ele>131.2</ele>
        <time>2019-07-11T09:29:41.000Z</time>
      </trkpt>
      <trkpt lat="44.14492" lon="0.46831">
        <ele>131.3</ele>
        <time>2019-07-11T09:29:43.000Z</time>
      </trkpt>
      <trkpt lat="44.1449" lon="0.46829">
        <ele>131.3</ele>
        <time>2019-07-11T09:29:45.000Z</time>
      </trkpt>
      <trkpt lat="44.14476" lon="0.46813">
        <ele>131.6</ele>
        <time>2019-07-11T09:29:59.000Z</time>
      </trkpt>
      <trkpt lat="44.14443" lon="0.46789">
        <ele>132.1</ele>
        <time>2019-07-11T09:30:27.000Z</time>
      </trkpt>
      <trkpt lat="44.14405" lon="0.46743">
        <ele>131.7</ele>
        <time>2019-07-11T09:31:12.000Z</time>
      </trkpt>
      <trkpt lat="44.14377" lon="0.46717">
        <ele>131.4</ele>
        <time>2019-07-11T09:31:40.000Z</time>
      </trkpt>
      <trkpt lat="44.14356" lon="0.46703">
        <ele>131.8</ele>
        <time>2019-07-11T09:32:06.000Z</time>
      </trkpt>
      <trkpt lat="44.14322" lon="0.46688">
        <ele>131.4</ele>
        <time>2019-07-11T09:32:34.000Z</time>
      </trkpt>
      <trkpt lat="44.14319" lon="0.46687">
        <ele>131.1</ele>
        <time>2019-07-11T09:32:36.000Z</time>
      </trkpt>
      <trkpt lat="44.14287" lon="0.46678">
        <ele>127.4</ele>
        <time>2019-07-11T09:33:07.000Z</time>
      </trkpt>
      <trkpt lat="44.14262" lon="0.46666">
        <ele>124.4</ele>
        <time>2019-07-11T09:33:40.000Z</time>
      </trkpt>
      <trkpt lat="44.14245" lon="0.46689">
        <ele>122.7</ele>
        <time>2019-07-11T09:34:15.000Z</time>
      </trkpt>
      <trkpt lat="44.14228" lon="0.46734">
        <ele>121.6</ele>
        <time>2019-07-11T09:34:59.000Z</time>
      </trkpt>
      <trkpt lat="44.14217" lon="0.46759">
        <ele>120.7</ele>
        <time>2019-07-11T09:35:42.000Z</time>
      </trkpt>
      <trkpt lat="44.1422" lon="0.46756">
        <ele>121.1</ele>
        <time>2019-07-11T09:36:55.000Z</time>
      </trkpt>
      <trkpt lat="44.14221" lon="0.46754">
        <ele>121.2</ele>
        <time>2019-07-11T09:38:03.000Z</time>
      </trkpt>
      <trkpt lat="44.14218" lon="0.46758">
        <ele>120.9</ele>
        <time>2019-07-11T09:38:27.000Z</time>
      </trkpt>
      <trkpt lat="44.14198" lon="0.46762">
        <ele>119</ele>
        <time>2019-07-11T09:39:01.000Z</time>
      </trkpt>
      <trkpt lat="44.14187" lon="0.46762">
        <ele>118</ele>
        <time>2019-07-11T09:39:12.000Z</time>
      </trkpt>
      <trkpt lat="44.1418" lon="0.46762">
        <ele>117.3</ele>
        <time>2019-07-11T09:39:18.000Z</time>
      </trkpt>
      <trkpt lat="44.14178" lon="0.46763">
        <ele>117.1</ele>
        <time>2019-07-11T09:39:20.000Z</time>
      </trkpt>
      <trkpt lat="44.14175" lon="0.46763">
        <ele>116.9</ele>
        <time>2019-07-11T09:39:22.000Z</time>
      </trkpt>
      <trkpt lat="44.14158" lon="0.46762">
        <ele>115.3</ele>
        <time>2019-07-11T09:41:11.000Z</time>
      </trkpt>
      <trkpt lat="44.1414" lon="0.4676">
        <ele>113.2</ele>
        <time>2019-07-11T09:41:54.000Z</time>
      </trkpt>
      <trkpt lat="44.14121" lon="0.46758">
        <ele>111.2</ele>
        <time>2019-07-11T09:42:12.000Z</time>
      </trkpt>
      <trkpt lat="44.14088" lon="0.46757">
        <ele>107.6</ele>
        <time>2019-07-11T09:42:41.000Z</time>
      </trkpt>
      <trkpt lat="44.14079" lon="0.46757">
        <ele>106.7</ele>
        <time>2019-07-11T09:43:28.000Z</time>
      </trkpt>
      <trkpt lat="44.14081" lon="0.46767">
        <ele>107</ele>
        <time>2019-07-11T09:44:23.000Z</time>
      </trkpt>
      <trkpt lat="44.14087" lon="0.46803">
        <ele>108</ele>
        <time>2019-07-11T09:44:49.000Z</time>
      </trkpt>
      <trkpt lat="44.14089" lon="0.46812">
        <ele>108.3</ele>
        <time>2019-07-11T09:44:55.000Z</time>
      </trkpt>
      <trkpt lat="44.1409" lon="0.46838">
        <ele>108.7</ele>
        <time>2019-07-11T09:45:12.000Z</time>
      </trkpt>
      <trkpt lat="44.14092" lon="0.46856">
        <ele>108.8</ele>
        <time>2019-07-11T09:45:24.000Z</time>
      </trkpt>
      <trkpt lat="44.14095" lon="0.46873">
        <ele>109</ele>
        <time>2019-07-11T09:45:33.000Z</time>
      </trkpt>
      <trkpt lat="44.141" lon="0.46888">
        <ele>109.2</ele>
        <time>2019-07-11T09:45:42.000Z</time>
      </trkpt>
      <trkpt lat="44.14106" lon="0.46925">
        <ele>108.8</ele>
        <time>2019-07-11T09:46:05.000Z</time>
      </trkpt>
      <trkpt lat="44.1411" lon="0.46938">
        <ele>108.1</ele>
        <time>2019-07-11T09:46:21.000Z</time>
      </trkpt>
      <trkpt lat="44.14111" lon="0.46942">
        <ele>107.9</ele>
        <time>2019-07-11T09:46:24.000Z</time>
      </trkpt>
      <trkpt lat="44.14114" lon="0.46949">
        <ele>107.6</ele>
        <time>2019-07-11T09:46:29.000Z</time>
      </trkpt>
      <trkpt lat="44.14114" lon="0.46953">
        <ele>107.4</ele>
        <time>2019-07-11T09:46:31.000Z</time>
      </trkpt>
      <trkpt lat="44.14116" lon="0.46955">
        <ele>107.4</ele>
        <time>2019-07-11T09:46:33.000Z</time>
      </trkpt>
      <trkpt lat="44.14125" lon="0.46969">
        <ele>107</ele>
        <time>2019-07-11T09:46:43.000Z</time>
      </trkpt>
      <trkpt lat="44.14126" lon="0.46972">
        <ele>106.9</ele>
        <time>2019-07-11T09:46:45.000Z</time>
      </trkpt>
      <trkpt lat="44.14132" lon="0.46989">
        <ele>106.2</ele>
        <time>2019-07-11T09:47:00.000Z</time>
      </trkpt>
      <trkpt lat="44.14139" lon="0.4701">
        <ele>105.4</ele>
        <time>2019-07-11T09:47:15.000Z</time>
      </trkpt>
      <trkpt lat="44.14146" lon="0.4704">
        <ele>104.4</ele>
        <time>2019-07-11T09:47:43.000Z</time>
      </trkpt>
      <trkpt lat="44.14159" lon="0.47072">
        <ele>103.8</ele>
        <time>2019-07-11T09:48:07.000Z</time>
      </trkpt>
      <trkpt lat="44.14166" lon="0.4709">
        <ele>104</ele>
        <time>2019-07-11T09:48:43.000Z</time>
      </trkpt>
      <trkpt lat="44.14177" lon="0.47125">
        <ele>105.8</ele>
        <time>2019-07-11T09:49:15.000Z</time>
      </trkpt>
      <trkpt lat="44.14185" lon="0.47149">
        <ele>106.9</ele>
        <time>2019-07-11T09:49:43.000Z</time>
      </trkpt>
      <trkpt lat="44.1419" lon="0.47168">
        <ele>107.5</ele>
        <time>2019-07-11T09:49:58.000Z</time>
      </trkpt>
      <trkpt lat="44.14199" lon="0.47204">
        <ele>108.2</ele>
        <time>2019-07-11T09:50:58.000Z</time>
      </trkpt>
      <trkpt lat="44.14204" lon="0.4723">
        <ele>108.4</ele>
        <time>2019-07-11T09:51:20.000Z</time>
      </trkpt>
      <trkpt lat="44.14219" lon="0.47277">
        <ele>108.2</ele>
        <time>2019-07-11T09:52:01.000Z</time>
      </trkpt>
      <trkpt lat="44.14239" lon="0.47314">
        <ele>107.5</ele>
        <time>2019-07-11T09:52:32.000Z</time>
      </trkpt>
      <trkpt lat="44.14238" lon="0.47319">
        <ele>107.2</ele>
        <time>2019-07-11T09:52:35.000Z</time>
      </trkpt>
      <trkpt lat="44.1424" lon="0.47339">
        <ele>106.3</ele>
        <time>2019-07-11T09:52:56.000Z</time>
      </trkpt>
      <trkpt lat="44.14242" lon="0.47346">
        <ele>106.2</ele>
        <time>2019-07-11T09:53:21.000Z</time>
      </trkpt>
      <trkpt lat="44.14243" lon="0.47349">
        <ele>106.1</ele>
        <time>2019-07-11T09:53:23.000Z</time>
      </trkpt>
      <trkpt lat="44.14249" lon="0.4739">
        <ele>104.9</ele>
        <time>2019-07-11T09:53:53.000Z</time>
      </trkpt>
      <trkpt lat="44.14249" lon="0.47395">
        <ele>104.8</ele>
        <time>2019-07-11T09:53:56.000Z</time>
      </trkpt>
      <trkpt lat="44.1425" lon="0.47403">
        <ele>104.5</ele>
        <time>2019-07-11T09:54:01.000Z</time>
      </trkpt>
      <trkpt lat="44.14254" lon="0.47428">
        <ele>104.2</ele>
        <time>2019-07-11T09:54:20.000Z</time>
      </trkpt>
      <trkpt lat="44.1426" lon="0.47461">
        <ele>104</ele>
        <time>2019-07-11T09:54:42.000Z</time>
      </trkpt>
      <trkpt lat="44.14265" lon="0.47497">
        <ele>103.7</ele>
        <time>2019-07-11T09:55:07.000Z</time>
      </trkpt>
      <trkpt lat="44.14269" lon="0.47525">
        <ele>103.4</ele>
        <time>2019-07-11T09:55:24.000Z</time>
      </trkpt>
      <trkpt lat="44.14273" lon="0.47561">
        <ele>102.8</ele>
        <time>2019-07-11T09:55:45.000Z</time>
      </trkpt>
      <trkpt lat="44.14275" lon="0.47614">
        <ele>101.6</ele>
        <time>2019-07-11T09:56:16.000Z</time>
      </trkpt>
      <trkpt lat="44.14277" lon="0.47657">
        <ele>100.6</ele>
        <time>2019-07-11T09:56:40.000Z</time>
      </trkpt>
      <trkpt lat="44.1428" lon="0.47702">
        <ele>100.3</ele>
        <time>2019-07-11T09:57:21.000Z</time>
      </trkpt>
      <trkpt lat="44.1426" lon="0.47758">
        <ele>99.4</ele>
        <time>2019-07-11T09:58:02.000Z</time>
      </trkpt>
      <trkpt lat="44.1423" lon="0.47834">
        <ele>100</ele>
        <time>2019-07-11T09:58:59.000Z</time>
      </trkpt>
      <trkpt lat="44.14223" lon="0.47891">
        <ele>102.2</ele>
        <time>2019-07-11T09:59:35.000Z</time>
      </trkpt>
      <trkpt lat="44.14224" lon="0.47895">
        <ele>102.3</ele>
        <time>2019-07-11T09:59:37.000Z</time>
      </trkpt>
      <trkpt lat="44.14222" lon="0.47912">
        <ele>102.8</ele>
        <time>2019-07-11T09:59:49.000Z</time>
      </trkpt>
      <trkpt lat="44.14224" lon="0.47944">
        <ele>103.9</ele>
        <time>2019-07-11T10:00:06.000Z</time>
      </trkpt>
      <trkpt lat="44.14226" lon="0.47982">
        <ele>105.1</ele>
        <time>2019-07-11T10:00:29.000Z</time>
      </trkpt>
      <trkpt lat="44.14227" lon="0.47985">
        <ele>105.2</ele>
        <time>2019-07-11T10:00:31.000Z</time>
      </trkpt>
      <trkpt lat="44.14228" lon="0.47988">
        <ele>105.4</ele>
        <time>2019-07-11T10:00:33.000Z</time>
      </trkpt>
      <trkpt lat="44.1423" lon="0.48016">
        <ele>106.7</ele>
        <time>2019-07-11T10:00:50.000Z</time>
      </trkpt>
      <trkpt lat="44.14228" lon="0.48057">
        <ele>109</ele>
        <time>2019-07-11T10:01:17.000Z</time>
      </trkpt>
      <trkpt lat="44.14225" lon="0.48103">
        <ele>111.2</ele>
        <time>2019-07-11T10:01:45.000Z</time>
      </trkpt>
      <trkpt lat="44.14224" lon="0.48106">
        <ele>111.3</ele>
        <time>2019-07-11T10:01:47.000Z</time>
      </trkpt>
      <trkpt lat="44.14229" lon="0.48114">
        <ele>112</ele>
        <time>2019-07-11T10:01:53.000Z</time>
      </trkpt>
      <trkpt lat="44.14227" lon="0.48138">
        <ele>113</ele>
        <time>2019-07-11T10:02:12.000Z</time>
      </trkpt>
      <trkpt lat="44.14226" lon="0.48141">
        <ele>113.1</ele>
        <time>2019-07-11T10:02:14.000Z</time>
      </trkpt>
      <trkpt lat="44.14221" lon="0.48175">
        <ele>113.9</ele>
        <time>2019-07-11T10:02:31.000Z</time>
      </trkpt>
      <trkpt lat="44.14165" lon="0.48142">
        <ele>107.4</ele>
      </trkpt>
      <trkpt lat="44.14118" lon="0.48131">
        <ele>108</ele>
      </trkpt>
      <trkpt lat="44.1408" lon="0.48126">
        <ele>108.9</ele>
        <time>2019-07-11T10:07:44.000Z</time>
      </trkpt>
      <trkpt lat="44.14053" lon="0.48122">
        <ele>111.5</ele>
      </trkpt>
      <trkpt lat="44.14027" lon="0.48116">
        <ele>114.2</ele>
        <time>2019-07-11T10:10:05.000Z</time>
      </trkpt>
      <trkpt lat="44.14" lon="0.48095">
        <ele>117</ele>
        <time>2019-07-11T10:10:37.000Z</time>
      </trkpt>
      <trkpt lat="44.13997" lon="0.48093">
        <ele>117.3</ele>
        <time>2019-07-11T10:10:39.000Z</time>
      </trkpt>
      <trkpt lat="44.13964" lon="0.48077">
        <ele>119.4</ele>
        <time>2019-07-11T10:11:10.000Z</time>
      </trkpt>
      <trkpt lat="44.13943" lon="0.48062">
        <ele>120.4</ele>
        <time>2019-07-11T10:11:32.000Z</time>
      </trkpt>
      <trkpt lat="44.13941" lon="0.4806">
        <ele>120.5</ele>
        <time>2019-07-11T10:11:34.000Z</time>
      </trkpt>
      <trkpt lat="44.13925" lon="0.48045">
        <ele>121.4</ele>
        <time>2019-07-11T10:11:52.000Z</time>
      </trkpt>
      <trkpt lat="44.13901" lon="0.48019">
        <ele>123</ele>
        <time>2019-07-11T10:12:19.000Z</time>
      </trkpt>
      <trkpt lat="44.13897" lon="0.48013">
        <ele>123.3</ele>
        <time>2019-07-11T10:12:24.000Z</time>
      </trkpt>
      <trkpt lat="44.1386" lon="0.47997">
        <ele>127.2</ele>
        <time>2019-07-11T10:12:58.000Z</time>
      </trkpt>
      <trkpt lat="44.13834" lon="0.47984">
        <ele>130.2</ele>
        <time>2019-07-11T10:13:27.000Z</time>
      </trkpt>
      <trkpt lat="44.1379" lon="0.47982">
        <ele>131</ele>
        <time>2019-07-11T10:14:13.000Z</time>
      </trkpt>
      <trkpt lat="44.13764" lon="0.47976">
        <ele>131.6</ele>
        <time>2019-07-11T10:14:39.000Z</time>
      </trkpt>
      <trkpt lat="44.1373" lon="0.47908">
        <ele>131.5</ele>
      </trkpt>
      <trkpt lat="44.13727" lon="0.4789">
        <ele>130.9</ele>
      </trkpt>
      <trkpt lat="44.13718" lon="0.4788">
        <ele>129.8</ele>
      </trkpt>
      <trkpt lat="44.13706" lon="0.47876">
        <ele>128.5</ele>
      </trkpt>
      <trkpt lat="44.13676" lon="0.4787">
        <ele>125.5</ele>
      </trkpt>
      <trkpt lat="44.1367" lon="0.47851">
        <ele>125.1</ele>
        <time>2019-07-11T11:04:04.000Z</time>
      </trkpt>
      <trkpt lat="44.13655" lon="0.47808">
        <ele>123.6</ele>
        <time>2019-07-11T11:04:32.000Z</time>
      </trkpt>
      <trkpt lat="44.13652" lon="0.47795">
        <ele>123.2</ele>
        <time>2019-07-11T11:04:41.000Z</time>
      </trkpt>
      <trkpt lat="44.13643" lon="0.4778">
        <ele>121.9</ele>
        <time>2019-07-11T11:05:39.000Z</time>
      </trkpt>
      <trkpt lat="44.13642" lon="0.47746">
        <ele>121.7</ele>
        <time>2019-07-11T11:06:06.000Z</time>
      </trkpt>
      <trkpt lat="44.13642" lon="0.47699">
        <ele>120.5</ele>
        <time>2019-07-11T11:06:39.000Z</time>
      </trkpt>
      <trkpt lat="44.1364" lon="0.47608">
        <ele>117.5</ele>
        <time>2019-07-11T11:07:41.000Z</time>
      </trkpt>
      <trkpt lat="44.13629" lon="0.47592">
        <ele>116.4</ele>
        <time>2019-07-11T11:08:09.000Z</time>
      </trkpt>
      <trkpt lat="44.136" lon="0.47558">
        <ele>113.9</ele>
        <time>2019-07-11T11:08:52.000Z</time>
      </trkpt>
      <trkpt lat="44.13593" lon="0.47548">
        <ele>113.2</ele>
        <time>2019-07-11T11:09:12.000Z</time>
      </trkpt>
      <trkpt lat="44.13582" lon="0.47547">
        <ele>112.5</ele>
        <time>2019-07-11T11:10:35.000Z</time>
      </trkpt>
      <trkpt lat="44.1356" lon="0.47535">
        <ele>110.5</ele>
        <time>2019-07-11T11:10:59.000Z</time>
      </trkpt>
      <trkpt lat="44.13518" lon="0.47517">
        <ele>107.2</ele>
        <time>2019-07-11T11:11:36.000Z</time>
      </trkpt>
      <trkpt lat="44.13499" lon="0.47508">
        <ele>105.9</ele>
        <time>2019-07-11T11:11:53.000Z</time>
      </trkpt>
      <trkpt lat="44.13494" lon="0.47506">
        <ele>105.4</ele>
        <time>2019-07-11T11:11:57.000Z</time>
      </trkpt>
      <trkpt lat="44.1347" lon="0.47496">
        <ele>102.8</ele>
        <time>2019-07-11T11:12:21.000Z</time>
      </trkpt>
      <trkpt lat="44.13456" lon="0.47492">
        <ele>101.4</ele>
        <time>2019-07-11T11:12:33.000Z</time>
      </trkpt>
      <trkpt lat="44.13449" lon="0.4749">
        <ele>100.7</ele>
        <time>2019-07-11T11:12:39.000Z</time>
      </trkpt>
      <trkpt lat="44.13442" lon="0.47488">
        <ele>100</ele>
        <time>2019-07-11T11:12:53.000Z</time>
      </trkpt>
      <trkpt lat="44.13437" lon="0.47486">
        <ele>99.5</ele>
        <time>2019-07-11T11:12:58.000Z</time>
      </trkpt>
      <trkpt lat="44.13431" lon="0.47485">
        <ele>98.9</ele>
        <time>2019-07-11T11:13:03.000Z</time>
      </trkpt>
      <trkpt lat="44.13413" lon="0.47477">
        <ele>97.2</ele>
        <time>2019-07-11T11:13:19.000Z</time>
      </trkpt>
      <trkpt lat="44.13364" lon="0.47461">
        <ele>92.8</ele>
        <time>2019-07-11T11:14:01.000Z</time>
      </trkpt>
      <trkpt lat="44.13322" lon="0.47448">
        <ele>89.6</ele>
        <time>2019-07-11T11:14:37.000Z</time>
      </trkpt>
      <trkpt lat="44.13297" lon="0.47445">
        <ele>88.3</ele>
        <time>2019-07-11T11:14:59.000Z</time>
      </trkpt>
      <trkpt lat="44.13276" lon="0.47438">
        <ele>87.2</ele>
        <time>2019-07-11T11:15:18.000Z</time>
      </trkpt>
      <trkpt lat="44.13256" lon="0.47444">
        <ele>86</ele>
        <time>2019-07-11T11:15:41.000Z</time>
      </trkpt>
      <trkpt lat="44.13258" lon="0.47489">
        <ele>85.5</ele>
        <time>2019-07-11T11:16:14.000Z</time>
      </trkpt>
      <trkpt lat="44.13236" lon="0.47512">
        <ele>85.5</ele>
        <time>2019-07-11T11:16:47.000Z</time>
      </trkpt>
      <trkpt lat="44.13223" lon="0.47466">
        <ele>86.6</ele>
        <time>2019-07-11T11:17:31.000Z</time>
      </trkpt>
      <trkpt lat="44.13193" lon="0.47451">
        <ele>87.9</ele>
        <time>2019-07-11T11:18:16.000Z</time>
      </trkpt>
      <trkpt lat="44.13193" lon="0.47453">
        <ele>87.9</ele>
        <time>2019-07-11T11:18:23.000Z</time>
      </trkpt>
      <trkpt lat="44.13171" lon="0.47452">
        <ele>88.8</ele>
        <time>2019-07-11T11:19:29.000Z</time>
      </trkpt>
      <trkpt lat="44.13145" lon="0.47386">
        <ele>90.5</ele>
        <time>2019-07-11T11:20:20.000Z</time>
      </trkpt>
      <trkpt lat="44.13111" lon="0.47312">
        <ele>92.7</ele>
        <time>2019-07-11T11:21:27.000Z</time>
      </trkpt>
      <trkpt lat="44.13087" lon="0.47256">
        <ele>93</ele>
        <time>2019-07-11T11:22:05.000Z</time>
      </trkpt>
      <trkpt lat="44.13068" lon="0.47215">
        <ele>94.4</ele>
        <time>2019-07-11T11:22:39.000Z</time>
      </trkpt>
      <trkpt lat="44.13034" lon="0.47157">
        <ele>95.9</ele>
        <time>2019-07-11T11:23:33.000Z</time>
      </trkpt>
      <trkpt lat="44.13033" lon="0.47149">
        <ele>96</ele>
        <time>2019-07-11T11:23:39.000Z</time>
      </trkpt>
      <trkpt lat="44.13014" lon="0.47084">
        <ele>96.8</ele>
        <time>2019-07-11T11:24:24.000Z</time>
      </trkpt>
      <trkpt lat="44.12998" lon="0.47007">
        <ele>89.3</ele>
        <time>2019-07-11T11:25:13.000Z</time>
      </trkpt>
      <trkpt lat="44.12993" lon="0.4699">
        <ele>86.6</ele>
        <time>2019-07-11T11:25:22.000Z</time>
      </trkpt>
      <trkpt lat="44.12979" lon="0.4695">
        <ele>80</ele>
        <time>2019-07-11T11:25:46.000Z</time>
      </trkpt>
      <trkpt lat="44.12961" lon="0.46905">
        <ele>73.5</ele>
        <time>2019-07-11T11:26:14.000Z</time>
      </trkpt>
      <trkpt lat="44.12943" lon="0.4687">
        <ele>69.6</ele>
        <time>2019-07-11T11:26:44.000Z</time>
      </trkpt>
      <trkpt lat="44.1291" lon="0.46908">
        <ele>69.1</ele>
        <time>2019-07-11T11:27:32.000Z</time>
      </trkpt>
      <trkpt lat="44.12882" lon="0.4698">
        <ele>71.8</ele>
        <time>2019-07-11T11:28:25.000Z</time>
      </trkpt>
      <trkpt lat="44.12855" lon="0.47011">
        <ele>71.4</ele>
        <time>2019-07-11T11:29:16.000Z</time>
      </trkpt>
      <trkpt lat="44.12833" lon="0.47009">
        <ele>70.2</ele>
        <time>2019-07-11T11:29:57.000Z</time>
      </trkpt>
      <trkpt lat="44.12824" lon="0.47023">
        <ele>70.4</ele>
        <time>2019-07-11T11:30:40.000Z</time>
      </trkpt>
      <trkpt lat="44.12781" lon="0.47007">
        <ele>68.9</ele>
        <time>2019-07-11T11:31:33.000Z</time>
      </trkpt>
      <trkpt lat="44.12772" lon="0.46989">
        <ele>68.9</ele>
        <time>2019-07-11T11:32:05.000Z</time>
      </trkpt>
      <trkpt lat="44.12754" lon="0.46964">
        <ele>69.4</ele>
        <time>2019-07-11T11:32:45.000Z</time>
      </trkpt>
      <trkpt lat="44.12739" lon="0.46931">
        <ele>70.5</ele>
        <time>2019-07-11T11:33:10.000Z</time>
      </trkpt>
      <trkpt lat="44.12733" lon="0.46893">
        <ele>72.5</ele>
        <time>2019-07-11T11:33:34.000Z</time>
      </trkpt>
      <trkpt lat="44.1272" lon="0.46823">
        <ele>76</ele>
        <time>2019-07-11T11:34:27.000Z</time>
      </trkpt>
      <trkpt lat="44.12711" lon="0.46784">
        <ele>77.5</ele>
        <time>2019-07-11T11:35:10.000Z</time>
      </trkpt>
      <trkpt lat="44.1268" lon="0.467">
        <ele>81</ele>
        <time>2019-07-11T11:36:11.000Z</time>
      </trkpt>
      <trkpt lat="44.12675" lon="0.46687">
        <ele>81.7</ele>
        <time>2019-07-11T11:36:37.000Z</time>
      </trkpt>
      <trkpt lat="44.12672" lon="0.46675">
        <ele>82.5</ele>
        <time>2019-07-11T11:37:05.000Z</time>
      </trkpt>
      <trkpt lat="44.12655" lon="0.46618">
        <ele>85.3</ele>
        <time>2019-07-11T11:38:12.000Z</time>
      </trkpt>
      <trkpt lat="44.12631" lon="0.46553">
        <ele>88.8</ele>
        <time>2019-07-11T11:38:59.000Z</time>
      </trkpt>
      <trkpt lat="44.12591" lon="0.46455">
        <ele>95.2</ele>
        <time>2019-07-11T11:40:17.000Z</time>
      </trkpt>
      <trkpt lat="44.12564" lon="0.46391">
        <ele>99.7</ele>
        <time>2019-07-11T11:41:09.000Z</time>
      </trkpt>
      <trkpt lat="44.12521" lon="0.46349">
        <ele>102.8</ele>
        <time>2019-07-11T11:41:54.000Z</time>
      </trkpt>
      <trkpt lat="44.12474" lon="0.46275">
        <ele>109.2</ele>
        <time>2019-07-11T11:42:52.000Z</time>
      </trkpt>
      <trkpt lat="44.12451" lon="0.4624">
        <ele>113.2</ele>
        <time>2019-07-11T11:43:23.000Z</time>
      </trkpt>
      <trkpt lat="44.1243" lon="0.46202">
        <ele>117.4</ele>
        <time>2019-07-11T11:43:54.000Z</time>
      </trkpt>
      <trkpt lat="44.12391" lon="0.46159">
        <ele>123.6</ele>
        <time>2019-07-11T11:44:51.000Z</time>
      </trkpt>
      <trkpt lat="44.12392" lon="0.46163">
        <ele>123.2</ele>
        <time>2019-07-11T11:45:30.000Z</time>
      </trkpt>
      <trkpt lat="44.12386" lon="0.46156">
        <ele>124</ele>
        <time>2019-07-11T11:46:39.000Z</time>
      </trkpt>
      <trkpt lat="44.12375" lon="0.46147">
        <ele>125.2</ele>
        <time>2019-07-11T11:47:23.000Z</time>
      </trkpt>
      <trkpt lat="44.12378" lon="0.46093">
        <ele>127.1</ele>
        <time>2019-07-11T11:48:04.000Z</time>
      </trkpt>
      <trkpt lat="44.12374" lon="0.46042">
        <ele>129</ele>
        <time>2019-07-11T11:48:50.000Z</time>
      </trkpt>
      <trkpt lat="44.12364" lon="0.45998">
        <ele>130.7</ele>
        <time>2019-07-11T11:49:22.000Z</time>
      </trkpt>
      <trkpt lat="44.12341" lon="0.45949">
        <ele>132</ele>
        <time>2019-07-11T11:50:02.000Z</time>
      </trkpt>
      <trkpt lat="44.12318" lon="0.45908">
        <ele>134</ele>
        <time>2019-07-11T11:50:32.000Z</time>
      </trkpt>
      <trkpt lat="44.12288" lon="0.45903">
        <ele>135.9</ele>
        <time>2019-07-11T11:51:07.000Z</time>
      </trkpt>
      <trkpt lat="44.1228" lon="0.45868">
        <ele>135.5</ele>
        <time>2019-07-11T11:51:44.000Z</time>
      </trkpt>
    </trkseg>
  </trk>
</gpx>